Tampere, Suomi

17. marraskuuta 2017 klo 19:30 (EET) (GMT +0200)
Ketuntie | | Change Station

Kork 364 ft 61.38 °N, 23.78 °E | Updated 6 minutes ago

Puolipilvistä
Puolipilvistä
36.5 °F
Tuntuu kuin 36 °F
N
2.5
Tuuli Suunnaltaan vaihteleva Tuuli ilmansuunnasta Lännen ja lounaan välinen
Gusts 6.8 mph

Tänään
Korkea -- | Matala -- °F
--% Sateen mahd.
Eilen
Korkea -- | Matala -- °F
Precip. -- tuumaa
Ilmanpaine 29.50 tuumaa
Näkyvyys 6.2 mailia
Pilviä Pilvistä 3500 ft
Pilvistä 4000 ft
Tuulen hyytävyys 36 °F
Kastepiste 35 °F
Ilmankosteus 95%
Sademäärä 0.00 tuumaa
Lumensyvyys Ei saatavilla
8:37 AM 3:43 PM
Vähenevä sirppi, 1% visible
METAR EFTP 171720Z AUTO 22012KT 9999 BKN035 BKN040 02/00 Q0999
Ilmanpaine 29.50 tuumaa
Näkyvyys 6.2 mailia
Pilviä Pilvistä 3500 ft
Pilvistä 4000 ft
Tuulen hyytävyys 36 °F
Kastepiste 35 °F
Ilmankosteus 95%
Sademäärä 0.00 tuumaa
Lumensyvyys Ei saatavilla
8:37 AM 3:43 PM
Vähenevä sirppi, 1% visible
METAR EFTP 171720Z AUTO 22012KT 9999 BKN035 BKN040 02/00 Q0999

Get Severe Weather Alerts

Thanks for signing up!

Be on the lookout for a verification email in your inbox.

You'll start receiving the daily forecast at 6 AM.

×

10-Day Weather Forecast

×

Almanac

Tähtitiede

Nov. 17, 2017 Nousuaika Laskuaika
Valoisa aika
Porvarillinen hämärä
Nauttinen hämärä
Astronominen hämärä
Kuu
Näkyvän valon pituus
Päivän pituus
Tomorrow will be .
, % of the Moon is Illuminated

Tämän päivän ennätykset

Country Highs Country Lows

Community

WunderPhotos

Category 6

Welcome to Category 6. This is the collective home for Weather Underground's featured writeups by Dr. Jeff Masters (right), Bob Henson (left), Chris Burt, and other regular contributors.

Nearby

Ilmanlaatu

  Ilmanlaatu AQ Index Pollutant
Not available.

Lumensyvyys

Station Depth Korkeus

Maanjäristysaktiivisuus

Paikkakunta Distance Mag. Time & Date
Minimum magnitude displayed is 2.5.

Coastal Water Temperatures

Paikka Lämpötila

Stations

Lähimmät sääasemat

Aseman sijainti Lämpötila Tuulen hyytävyys Kastepiste Ilmankosteus Tuuli Precip. Kork Päivitetty Tyyppi